sensor_id;sensor_type;location;lat;lon;timestamp;P1;durP1;ratioP1;P2;durP2;ratioP2
40533;SDS011;26233;51.894;10.192;2023-12-20T00:02:05;2.50;;;2.30;;
40533;SDS011;26233;51.894;10.192;2023-12-20T00:04:32;2.70;;;2.50;;
40533;SDS011;26233;51.894;10.192;2023-12-20T00:06:59;2.37;;;2.17;;
40533;SDS011;26233;51.894;10.192;2023-12-20T00:09:26;2.40;;;2.20;;
40533;SDS011;26233;51.894;10.192;2023-12-20T00:11:55;2.67;;;2.47;;
40533;SDS011;26233;51.894;10.192;2023-12-20T00:14:22;2.73;;;2.53;;
40533;SDS011;26233;51.894;10.192;2023-12-20T00:16:49;2.50;;;2.30;;
40533;SDS011;26233;51.894;10.192;2023-12-20T00:19:16;2.20;;;2.10;;
40533;SDS011;26233;51.894;10.192;2023-12-20T00:21:43;2.57;;;2.30;;
40533;SDS011;26233;51.894;10.192;2023-12-20T00:24:10;2.53;;;2.33;;
40533;SDS011;26233;51.894;10.192;2023-12-20T00:26:37;2.10;;;2.00;;
40533;SDS011;26233;51.894;10.192;2023-12-20T00:29:05;2.10;;;2.00;;
40533;SDS011;26233;51.894;10.192;2023-12-20T00:31:32;2.50;;;2.30;;
40533;SDS011;26233;51.894;10.192;2023-12-20T00:33:59;2.40;;;2.20;;
40533;SDS011;26233;51.894;10.192;2023-12-20T00:36:26;1.90;;;1.80;;
40533;SDS011;26233;51.894;10.192;2023-12-20T00:38:53;2.03;;;1.93;;
40533;SDS011;26233;51.894;10.192;2023-12-20T00:41:20;2.07;;;1.90;;
40533;SDS011;26233;51.894;10.192;2023-12-20T00:43:47;1.80;;;1.70;;
40533;SDS011;26233;51.894;10.192;2023-12-20T00:46:15;1.80;;;1.70;;
40533;SDS011;26233;51.894;10.192;2023-12-20T00:48:42;1.70;;;1.60;;
40533;SDS011;26233;51.894;10.192;2023-12-20T00:51:10;2.03;;;1.93;;
40533;SDS011;26233;51.894;10.192;2023-12-20T00:53:37;2.23;;;2.03;;
40533;SDS011;26233;51.894;10.192;2023-12-20T00:56:04;1.97;;;1.87;;
40533;SDS011;26233;51.894;10.192;2023-12-20T00:58:32;2.47;;;2.27;;
40533;SDS011;26233;51.894;10.192;2023-12-20T01:00:59;2.57;;;2.37;;
40533;SDS011;26233;51.894;10.192;2023-12-20T01:03:27;2.07;;;1.97;;
40533;SDS011;26233;51.894;10.192;2023-12-20T01:05:55;2.37;;;2.17;;
40533;SDS011;26233;51.894;10.192;2023-12-20T01:08:22;2.60;;;2.40;;
40533;SDS011;26233;51.894;10.192;2023-12-20T01:10:49;2.70;;;2.50;;
40533;SDS011;26233;51.894;10.192;2023-12-20T01:13:16;2.70;;;2.50;;
40533;SDS011;26233;51.894;10.192;2023-12-20T01:15:43;2.77;;;2.57;;
40533;SDS011;26233;51.894;10.192;2023-12-20T01:18:10;2.97;;;2.77;;
40533;SDS011;26233;51.894;10.192;2023-12-20T01:20:39;2.67;;;2.47;;
40533;SDS011;26233;51.894;10.192;2023-12-20T01:23:06;3.03;;;2.83;;
40533;SDS011;26233;51.894;10.192;2023-12-20T01:25:33;2.63;;;2.43;;
40533;SDS011;26233;51.894;10.192;2023-12-20T01:28:00;2.67;;;2.47;;
40533;SDS011;26233;51.894;10.192;2023-12-20T01:30:28;2.43;;;2.23;;
40533;SDS011;26233;51.894;10.192;2023-12-20T01:32:55;2.77;;;2.57;;
40533;SDS011;26233;51.894;10.192;2023-12-20T01:35:22;2.23;;;2.03;;
40533;SDS011;26233;51.894;10.192;2023-12-20T01:37:50;2.40;;;2.20;;
40533;SDS011;26233;51.894;10.192;2023-12-20T01:40:21;2.30;;;2.10;;
40533;SDS011;26233;51.894;10.192;2023-12-20T01:42:57;2.60;;;2.40;;
40533;SDS011;26233;51.894;10.192;2023-12-20T01:45:25;2.47;;;2.27;;
40533;SDS011;26233;51.894;10.192;2023-12-20T01:47:52;2.60;;;2.40;;
40533;SDS011;26233;51.894;10.192;2023-12-20T01:50:20;2.60;;;2.40;;
40533;SDS011;26233;51.894;10.192;2023-12-20T01:52:47;3.40;;;2.60;;
40533;SDS011;26233;51.894;10.192;2023-12-20T01:55:18;2.80;;;2.60;;
40533;SDS011;26233;51.894;10.192;2023-12-20T01:57:46;3.00;;;2.80;;
40533;SDS011;26233;51.894;10.192;2023-12-20T02:00:14;3.00;;;2.80;;
40533;SDS011;26233;51.894;10.192;2023-12-20T02:02:41;3.13;;;2.93;;
40533;SDS011;26233;51.894;10.192;2023-12-20T02:05:11;3.00;;;2.80;;
40533;SDS011;26233;51.894;10.192;2023-12-20T02:07:39;3.27;;;3.00;;
40533;SDS011;26233;51.894;10.192;2023-12-20T02:10:06;3.10;;;2.90;;
40533;SDS011;26233;51.894;10.192;2023-12-20T02:12:35;3.23;;;3.03;;
40533;SDS011;26233;51.894;10.192;2023-12-20T02:15:03;3.03;;;2.83;;
40533;SDS011;26233;51.894;10.192;2023-12-20T02:17:31;3.07;;;2.80;;
40533;SDS011;26233;51.894;10.192;2023-12-20T02:19:58;3.30;;;3.00;;
40533;SDS011;26233;51.894;10.192;2023-12-20T02:22:27;3.20;;;2.90;;
40533;SDS011;26233;51.894;10.192;2023-12-20T02:24:54;3.07;;;2.83;;
40533;SDS011;26233;51.894;10.192;2023-12-20T02:27:21;2.93;;;2.73;;
40533;SDS011;26233;51.894;10.192;2023-12-20T02:29:49;3.17;;;2.87;;
40533;SDS011;26233;51.894;10.192;2023-12-20T02:32:17;2.73;;;2.47;;
40533;SDS011;26233;51.894;10.192;2023-12-20T02:34:46;2.57;;;2.30;;
40533;SDS011;26233;51.894;10.192;2023-12-20T02:37:14;2.03;;;1.87;;
40533;SDS011;26233;51.894;10.192;2023-12-20T02:39:42;2.33;;;1.87;;
40533;SDS011;26233;51.894;10.192;2023-12-20T02:42:09;2.47;;;1.70;;
40533;SDS011;26233;51.894;10.192;2023-12-20T02:44:36;2.93;;;1.80;;
40533;SDS011;26233;51.894;10.192;2023-12-20T02:47:03;2.30;;;1.33;;
40533;SDS011;26233;51.894;10.192;2023-12-20T02:49:30;1.80;;;1.27;;
40533;SDS011;26233;51.894;10.192;2023-12-20T02:51:57;2.13;;;1.63;;
40533;SDS011;26233;51.894;10.192;2023-12-20T02:54:24;1.83;;;1.50;;
40533;SDS011;26233;51.894;10.192;2023-12-20T02:56:53;1.60;;;1.50;;
40533;SDS011;26233;51.894;10.192;2023-12-20T02:59:20;1.93;;;1.67;;
40533;SDS011;26233;51.894;10.192;2023-12-20T03:01:47;1.60;;;1.30;;
40533;SDS011;26233;51.894;10.192;2023-12-20T03:04:14;2.77;;;1.53;;
40533;SDS011;26233;51.894;10.192;2023-12-20T03:06:41;1.70;;;1.60;;
40533;SDS011;26233;51.894;10.192;2023-12-20T03:09:08;1.80;;;1.50;;
40533;SDS011;26233;51.894;10.192;2023-12-20T03:11:35;2.73;;;1.53;;
40533;SDS011;26233;51.894;10.192;2023-12-20T03:14:03;1.40;;;1.30;;
40533;SDS011;26233;51.894;10.192;2023-12-20T03:16:30;1.60;;;1.50;;
40533;SDS011;26233;51.894;10.192;2023-12-20T03:18:58;1.67;;;1.47;;
40533;SDS011;26233;51.894;10.192;2023-12-20T03:21:25;2.50;;;1.50;;
40533;SDS011;26233;51.894;10.192;2023-12-20T03:23:52;2.60;;;1.70;;
40533;SDS011;26233;51.894;10.192;2023-12-20T03:26:19;2.53;;;1.80;;
40533;SDS011;26233;51.894;10.192;2023-12-20T03:28:47;2.23;;;1.43;;
40533;SDS011;26233;51.894;10.192;2023-12-20T03:31:16;2.90;;;1.53;;
40533;SDS011;26233;51.894;10.192;2023-12-20T03:33:43;1.50;;;1.40;;
40533;SDS011;26233;51.894;10.192;2023-12-20T03:36:10;3.03;;;1.70;;
40533;SDS011;26233;51.894;10.192;2023-12-20T03:38:37;1.53;;;1.30;;
40533;SDS011;26233;51.894;10.192;2023-12-20T03:41:04;3.27;;;1.60;;
40533;SDS011;26233;51.894;10.192;2023-12-20T03:43:31;2.27;;;1.80;;
40533;SDS011;26233;51.894;10.192;2023-12-20T03:45:58;2.05;;;1.60;;
40533;SDS011;26233;51.894;10.192;2023-12-20T03:48:26;1.60;;;1.47;;
40533;SDS011;26233;51.894;10.192;2023-12-20T03:50:53;2.00;;;1.50;;
40533;SDS011;26233;51.894;10.192;2023-12-20T03:53:20;2.93;;;1.50;;
40533;SDS011;26233;51.894;10.192;2023-12-20T03:55:47;2.13;;;1.50;;
40533;SDS011;26233;51.894;10.192;2023-12-20T03:58:14;2.27;;;1.50;;
40533;SDS011;26233;51.894;10.192;2023-12-20T04:00:41;1.33;;;1.23;;
40533;SDS011;26233;51.894;10.192;2023-12-20T04:03:08;1.90;;;1.40;;
40533;SDS011;26233;51.894;10.192;2023-12-20T04:05:39;2.17;;;1.15;;
40533;SDS011;26233;51.894;10.192;2023-12-20T04:08:07;1.30;;;1.20;;
40533;SDS011;26233;51.894;10.192;2023-12-20T04:10:35;1.77;;;1.20;;
40533;SDS011;26233;51.894;10.192;2023-12-20T04:13:02;2.00;;;1.27;;
40533;SDS011;26233;51.894;10.192;2023-12-20T04:15:30;3.03;;;1.20;;
40533;SDS011;26233;51.894;10.192;2023-12-20T04:17:57;2.20;;;1.20;;
40533;SDS011;26233;51.894;10.192;2023-12-20T04:20:24;1.53;;;1.37;;
40533;SDS011;26233;51.894;10.192;2023-12-20T04:22:52;2.10;;;1.27;;
40533;SDS011;26233;51.894;10.192;2023-12-20T04:25:19;1.60;;;1.03;;
40533;SDS011;26233;51.894;10.192;2023-12-20T04:27:46;3.57;;;1.30;;
40533;SDS011;26233;51.894;10.192;2023-12-20T04:30:13;2.63;;;1.40;;
40533;SDS011;26233;51.894;10.192;2023-12-20T04:32:40;1.63;;;1.10;;
40533;SDS011;26233;51.894;10.192;2023-12-20T04:35:07;2.53;;;1.20;;
40533;SDS011;26233;51.894;10.192;2023-12-20T04:37:34;2.43;;;1.10;;
40533;SDS011;26233;51.894;10.192;2023-12-20T04:40:03;1.90;;;1.30;;
40533;SDS011;26233;51.894;10.192;2023-12-20T04:42:32;1.47;;;1.20;;
40533;SDS011;26233;51.894;10.192;2023-12-20T04:44:59;1.93;;;1.20;;
40533;SDS011;26233;51.894;10.192;2023-12-20T04:47:26;1.47;;;1.00;;
40533;SDS011;26233;51.894;10.192;2023-12-20T04:49:53;2.83;;;1.40;;
40533;SDS011;26233;51.894;10.192;2023-12-20T04:52:20;2.73;;;1.10;;
40533;SDS011;26233;51.894;10.192;2023-12-20T04:54:47;1.43;;;1.10;;
40533;SDS011;26233;51.894;10.192;2023-12-20T04:57:16;1.83;;;1.17;;
40533;SDS011;26233;51.894;10.192;2023-12-20T04:59:43;3.87;;;1.50;;
40533;SDS011;26233;51.894;10.192;2023-12-20T05:02:10;2.40;;;1.07;;
40533;SDS011;26233;51.894;10.192;2023-12-20T05:04:37;2.43;;;1.30;;
40533;SDS011;26233;51.894;10.192;2023-12-20T05:07:04;2.97;;;1.00;;
40533;SDS011;26233;51.894;10.192;2023-12-20T05:09:31;2.17;;;1.40;;
40533;SDS011;26233;51.894;10.192;2023-12-20T05:11:59;3.10;;;1.40;;
40533;SDS011;26233;51.894;10.192;2023-12-20T05:14:27;1.57;;;1.13;;
40533;SDS011;26233;51.894;10.192;2023-12-20T05:16:55;1.80;;;1.00;;
40533;SDS011;26233;51.894;10.192;2023-12-20T05:19:22;1.77;;;1.20;;
40533;SDS011;26233;51.894;10.192;2023-12-20T05:21:49;2.40;;;1.30;;
40533;SDS011;26233;51.894;10.192;2023-12-20T05:24:16;1.70;;;0.90;;
40533;SDS011;26233;51.894;10.192;2023-12-20T05:26:43;3.20;;;1.40;;
40533;SDS011;26233;51.894;10.192;2023-12-20T05:29:10;2.27;;;1.40;;
40533;SDS011;26233;51.894;10.192;2023-12-20T05:31:39;3.20;;;1.27;;
40533;SDS011;26233;51.894;10.192;2023-12-20T05:34:06;2.53;;;1.47;;
40533;SDS011;26233;51.894;10.192;2023-12-20T05:36:33;2.90;;;1.50;;
40533;SDS011;26233;51.894;10.192;2023-12-20T05:39:00;2.80;;;1.40;;
40533;SDS011;26233;51.894;10.192;2023-12-20T05:41:28;3.00;;;1.30;;
40533;SDS011;26233;51.894;10.192;2023-12-20T05:43:56;1.90;;;1.57;;
40533;SDS011;26233;51.894;10.192;2023-12-20T05:46:24;2.83;;;1.60;;
40533;SDS011;26233;51.894;10.192;2023-12-20T05:48:53;4.80;;;1.47;;
40533;SDS011;26233;51.894;10.192;2023-12-20T05:51:20;2.67;;;1.67;;
40533;SDS011;26233;51.894;10.192;2023-12-20T05:53:47;3.13;;;1.90;;
40533;SDS011;26233;51.894;10.192;2023-12-20T05:56:15;3.20;;;1.50;;
40533;SDS011;26233;51.894;10.192;2023-12-20T05:58:42;2.90;;;1.57;;
40533;SDS011;26233;51.894;10.192;2023-12-20T06:01:09;2.60;;;1.57;;
40533;SDS011;26233;51.894;10.192;2023-12-20T06:03:37;3.23;;;1.77;;
40533;SDS011;26233;51.894;10.192;2023-12-20T06:06:09;4.93;;;1.70;;
40533;SDS011;26233;51.894;10.192;2023-12-20T06:08:37;1.70;;;1.60;;
40533;SDS011;26233;51.894;10.192;2023-12-20T06:11:05;3.07;;;1.67;;
40533;SDS011;26233;51.894;10.192;2023-12-20T06:13:32;2.87;;;2.03;;
40533;SDS011;26233;51.894;10.192;2023-12-20T06:15:59;2.90;;;1.60;;
40533;SDS011;26233;51.894;10.192;2023-12-20T06:18:25;2.90;;;1.63;;
40533;SDS011;26233;51.894;10.192;2023-12-20T06:20:52;3.10;;;2.00;;
40533;SDS011;26233;51.894;10.192;2023-12-20T06:23:22;4.30;;;1.90;;
40533;SDS011;26233;51.894;10.192;2023-12-20T06:25:49;3.87;;;1.90;;
40533;SDS011;26233;51.894;10.192;2023-12-20T06:28:16;4.30;;;2.30;;
40533;SDS011;26233;51.894;10.192;2023-12-20T06:30:43;3.47;;;2.00;;
40533;SDS011;26233;51.894;10.192;2023-12-20T06:33:12;3.37;;;1.90;;
40533;SDS011;26233;51.894;10.192;2023-12-20T06:35:39;5.90;;;2.10;;
40533;SDS011;26233;51.894;10.192;2023-12-20T06:38:06;3.23;;;2.00;;
40533;SDS011;26233;51.894;10.192;2023-12-20T06:40:35;2.37;;;1.87;;
40533;SDS011;26233;51.894;10.192;2023-12-20T06:43:02;2.90;;;2.10;;
40533;SDS011;26233;51.894;10.192;2023-12-20T06:45:29;4.03;;;2.20;;
40533;SDS011;26233;51.894;10.192;2023-12-20T06:47:57;3.70;;;2.23;;
40533;SDS011;26233;51.894;10.192;2023-12-20T06:50:24;2.47;;;1.90;;
40533;SDS011;26233;51.894;10.192;2023-12-20T06:52:51;3.37;;;1.93;;
40533;SDS011;26233;51.894;10.192;2023-12-20T06:55:18;3.30;;;2.33;;
40533;SDS011;26233;51.894;10.192;2023-12-20T06:57:46;2.73;;;2.00;;
40533;SDS011;26233;51.894;10.192;2023-12-20T07:00:13;3.40;;;2.07;;
40533;SDS011;26233;51.894;10.192;2023-12-20T07:02:43;3.87;;;2.10;;
40533;SDS011;26233;51.894;10.192;2023-12-20T07:05:12;6.03;;;2.47;;
40533;SDS011;26233;51.894;10.192;2023-12-20T07:07:44;7.20;;;2.50;;
40533;SDS011;26233;51.894;10.192;2023-12-20T07:10:12;5.87;;;2.73;;
40533;SDS011;26233;51.894;10.192;2023-12-20T07:12:39;4.53;;;2.40;;
40533;SDS011;26233;51.894;10.192;2023-12-20T07:15:08;4.93;;;2.47;;
40533;SDS011;26233;51.894;10.192;2023-12-20T07:17:36;3.80;;;2.40;;
40533;SDS011;26233;51.894;10.192;2023-12-20T07:20:03;4.43;;;2.27;;
40533;SDS011;26233;51.894;10.192;2023-12-20T07:22:34;3.83;;;2.00;;
40533;SDS011;26233;51.894;10.192;2023-12-20T07:25:02;4.83;;;2.10;;
40533;SDS011;26233;51.894;10.192;2023-12-20T07:27:29;4.17;;;2.40;;
40533;SDS011;26233;51.894;10.192;2023-12-20T07:29:56;3.40;;;2.00;;
40533;SDS011;26233;51.894;10.192;2023-12-20T07:32:24;4.50;;;2.07;;
40533;SDS011;26233;51.894;10.192;2023-12-20T07:34:52;4.13;;;2.30;;
40533;SDS011;26233;51.894;10.192;2023-12-20T07:37:19;3.47;;;2.30;;
40533;SDS011;26233;51.894;10.192;2023-12-20T07:39:47;3.37;;;2.10;;
40533;SDS011;26233;51.894;10.192;2023-12-20T07:42:14;5.27;;;2.20;;
40533;SDS011;26233;51.894;10.192;2023-12-20T07:44:41;3.13;;;2.07;;
40533;SDS011;26233;51.894;10.192;2023-12-20T07:47:08;5.83;;;2.50;;
40533;SDS011;26233;51.894;10.192;2023-12-20T07:49:37;4.53;;;2.37;;
40533;SDS011;26233;51.894;10.192;2023-12-20T07:52:04;4.63;;;2.50;;
40533;SDS011;26233;51.894;10.192;2023-12-20T07:54:33;3.70;;;2.30;;
40533;SDS011;26233;51.894;10.192;2023-12-20T07:57:00;3.93;;;2.37;;
40533;SDS011;26233;51.894;10.192;2023-12-20T07:59:27;3.40;;;2.50;;
40533;SDS011;26233;51.894;10.192;2023-12-20T08:01:54;3.37;;;2.30;;
40533;SDS011;26233;51.894;10.192;2023-12-20T08:04:21;5.57;;;2.40;;
40533;SDS011;26233;51.894;10.192;2023-12-20T08:06:50;4.10;;;2.63;;
40533;SDS011;26233;51.894;10.192;2023-12-20T08:09:17;3.17;;;2.43;;
40533;SDS011;26233;51.894;10.192;2023-12-20T08:11:44;4.63;;;2.43;;
40533;SDS011;26233;51.894;10.192;2023-12-20T08:14:11;5.53;;;2.20;;
40533;SDS011;26233;51.894;10.192;2023-12-20T08:16:38;4.67;;;2.43;;
40533;SDS011;26233;51.894;10.192;2023-12-20T08:19:06;4.40;;;2.40;;
40533;SDS011;26233;51.894;10.192;2023-12-20T08:21:33;5.67;;;2.53;;
40533;SDS011;26233;51.894;10.192;2023-12-20T08:24:01;5.50;;;2.50;;
40533;SDS011;26233;51.894;10.192;2023-12-20T08:26:29;5.00;;;2.67;;
40533;SDS011;26233;51.894;10.192;2023-12-20T08:28:56;4.57;;;2.33;;
40533;SDS011;26233;51.894;10.192;2023-12-20T08:31:23;6.03;;;2.40;;
40533;SDS011;26233;51.894;10.192;2023-12-20T08:33:51;4.53;;;2.30;;
40533;SDS011;26233;51.894;10.192;2023-12-20T08:36:19;4.33;;;2.30;;
40533;SDS011;26233;51.894;10.192;2023-12-20T08:38:48;7.17;;;2.50;;
40533;SDS011;26233;51.894;10.192;2023-12-20T08:41:17;3.77;;;2.30;;
40533;SDS011;26233;51.894;10.192;2023-12-20T08:43:44;5.40;;;2.63;;
40533;SDS011;26233;51.894;10.192;2023-12-20T08:46:11;3.00;;;2.30;;
40533;SDS011;26233;51.894;10.192;2023-12-20T08:48:39;4.53;;;2.30;;
40533;SDS011;26233;51.894;10.192;2023-12-20T08:51:06;4.00;;;2.20;;
40533;SDS011;26233;51.894;10.192;2023-12-20T08:53:34;4.37;;;2.40;;
40533;SDS011;26233;51.894;10.192;2023-12-20T08:56:01;7.63;;;2.60;;
40533;SDS011;26233;51.894;10.192;2023-12-20T08:58:30;6.57;;;2.80;;
40533;SDS011;26233;51.894;10.192;2023-12-20T09:00:58;4.97;;;2.80;;
40533;SDS011;26233;51.894;10.192;2023-12-20T09:03:25;4.83;;;2.80;;
40533;SDS011;26233;51.894;10.192;2023-12-20T09:05:52;3.83;;;2.50;;
40533;SDS011;26233;51.894;10.192;2023-12-20T09:08:19;4.60;;;2.60;;
40533;SDS011;26233;51.894;10.192;2023-12-20T09:10:46;3.97;;;2.20;;
40533;SDS011;26233;51.894;10.192;2023-12-20T09:13:13;3.70;;;2.27;;
40533;SDS011;26233;51.894;10.192;2023-12-20T09:15:42;3.60;;;2.60;;
40533;SDS011;26233;51.894;10.192;2023-12-20T09:18:09;4.07;;;2.50;;
40533;SDS011;26233;51.894;10.192;2023-12-20T09:20:36;4.00;;;2.80;;
40533;SDS011;26233;51.894;10.192;2023-12-20T09:23:03;5.50;;;2.50;;
40533;SDS011;26233;51.894;10.192;2023-12-20T09:25:30;2.90;;;2.47;;
40533;SDS011;26233;51.894;10.192;2023-12-20T09:27:57;5.70;;;2.87;;
40533;SDS011;26233;51.894;10.192;2023-12-20T09:30:24;4.53;;;2.83;;
40533;SDS011;26233;51.894;10.192;2023-12-20T09:32:53;5.07;;;2.80;;
40533;SDS011;26233;51.894;10.192;2023-12-20T09:35:20;4.63;;;2.47;;
40533;SDS011;26233;51.894;10.192;2023-12-20T09:37:47;5.47;;;3.10;;
40533;SDS011;26233;51.894;10.192;2023-12-20T09:40:14;3.97;;;2.70;;
40533;SDS011;26233;51.894;10.192;2023-12-20T09:42:47;7.07;;;3.00;;
40533;SDS011;26233;51.894;10.192;2023-12-20T09:45:17;5.23;;;2.77;;
40533;SDS011;26233;51.894;10.192;2023-12-20T09:47:47;5.30;;;2.90;;
40533;SDS011;26233;51.894;10.192;2023-12-20T09:50:17;4.53;;;2.83;;
40533;SDS011;26233;51.894;10.192;2023-12-20T09:52:46;4.07;;;2.77;;
40533;SDS011;26233;51.894;10.192;2023-12-20T09:55:17;4.73;;;2.83;;
40533;SDS011;26233;51.894;10.192;2023-12-20T09:57:45;3.23;;;2.60;;
40533;SDS011;26233;51.894;10.192;2023-12-20T10:00:13;6.23;;;2.50;;
40533;SDS011;26233;51.894;10.192;2023-12-20T10:02:42;2.67;;;2.27;;
40533;SDS011;26233;51.894;10.192;2023-12-20T10:05:17;4.73;;;2.50;;
40533;SDS011;26233;51.894;10.192;2023-12-20T10:07:45;5.50;;;2.90;;
40533;SDS011;26233;51.894;10.192;2023-12-20T10:10:13;3.13;;;2.23;;
40533;SDS011;26233;51.894;10.192;2023-12-20T10:12:40;4.00;;;2.50;;
40533;SDS011;26233;51.894;10.192;2023-12-20T10:15:29;4.07;;;2.43;;
40533;SDS011;26233;51.894;10.192;2023-12-20T10:17:56;3.00;;;1.97;;
40533;SDS011;26233;51.894;10.192;2023-12-20T10:20:25;4.07;;;2.20;;
40533;SDS011;26233;51.894;10.192;2023-12-20T10:22:54;3.20;;;2.50;;
40533;SDS011;26233;51.894;10.192;2023-12-20T10:25:21;3.40;;;2.60;;
40533;SDS011;26233;51.894;10.192;2023-12-20T10:27:49;4.73;;;2.43;;
40533;SDS011;26233;51.894;10.192;2023-12-20T10:30:17;4.70;;;2.80;;
40533;SDS011;26233;51.894;10.192;2023-12-20T10:32:44;5.13;;;2.50;;
40533;SDS011;26233;51.894;10.192;2023-12-20T10:35:11;3.67;;;2.50;;
40533;SDS011;26233;51.894;10.192;2023-12-20T10:37:39;3.87;;;2.47;;
40533;SDS011;26233;51.894;10.192;2023-12-20T10:40:07;3.93;;;2.40;;
40533;SDS011;26233;51.894;10.192;2023-12-20T10:42:35;4.90;;;2.37;;
40533;SDS011;26233;51.894;10.192;2023-12-20T10:45:06;5.70;;;2.70;;
40533;SDS011;26233;51.894;10.192;2023-12-20T10:47:33;3.17;;;2.70;;
40533;SDS011;26233;51.894;10.192;2023-12-20T10:50:02;3.80;;;2.40;;
40533;SDS011;26233;51.894;10.192;2023-12-20T10:52:34;5.27;;;2.50;;
40533;SDS011;26233;51.894;10.192;2023-12-20T10:55:05;5.20;;;2.63;;
40533;SDS011;26233;51.894;10.192;2023-12-20T10:57:33;3.90;;;2.33;;
40533;SDS011;26233;51.894;10.192;2023-12-20T11:00:03;3.67;;;2.47;;
40533;SDS011;26233;51.894;10.192;2023-12-20T11:02:32;3.73;;;2.33;;
40533;SDS011;26233;51.894;10.192;2023-12-20T11:05:06;5.33;;;3.13;;
40533;SDS011;26233;51.894;10.192;2023-12-20T11:07:50;4.70;;;3.10;;
40533;SDS011;26233;51.894;10.192;2023-12-20T11:10:25;4.03;;;2.30;;
40533;SDS011;26233;51.894;10.192;2023-12-20T11:12:57;3.80;;;2.80;;
40533;SDS011;26233;51.894;10.192;2023-12-20T11:15:35;3.37;;;2.30;;
40533;SDS011;26233;51.894;10.192;2023-12-20T11:18:03;2.80;;;2.43;;
40533;SDS011;26233;51.894;10.192;2023-12-20T11:20:35;3.37;;;2.67;;
40533;SDS011;26233;51.894;10.192;2023-12-20T11:23:03;3.87;;;3.10;;
40533;SDS011;26233;51.894;10.192;2023-12-20T11:25:35;3.73;;;2.67;;
40533;SDS011;26233;51.894;10.192;2023-12-20T11:28:20;3.70;;;2.40;;
40533;SDS011;26233;51.894;10.192;2023-12-20T11:30:50;3.80;;;2.17;;
40533;SDS011;26233;51.894;10.192;2023-12-20T11:33:21;5.47;;;2.80;;
40533;SDS011;26233;51.894;10.192;2023-12-20T11:35:49;3.93;;;2.83;;
40533;SDS011;26233;51.894;10.192;2023-12-20T11:38:16;3.17;;;2.80;;
40533;SDS011;26233;51.894;10.192;2023-12-20T11:40:49;4.13;;;2.40;;
40533;SDS011;26233;51.894;10.192;2023-12-20T11:43:29;4.50;;;2.60;;
40533;SDS011;26233;51.894;10.192;2023-12-20T11:46:02;3.90;;;2.60;;
40533;SDS011;26233;51.894;10.192;2023-12-20T11:48:30;3.17;;;2.60;;
40533;SDS011;26233;51.894;10.192;2023-12-20T11:50:58;3.13;;;2.63;;
40533;SDS011;26233;51.894;10.192;2023-12-20T11:53:25;4.10;;;2.73;;
40533;SDS011;26233;51.894;10.192;2023-12-20T11:55:54;3.00;;;2.70;;
40533;SDS011;26233;51.894;10.192;2023-12-20T11:58:21;4.83;;;2.67;;
40533;SDS011;26233;51.894;10.192;2023-12-20T12:00:49;2.83;;;2.40;;
40533;SDS011;26233;51.894;10.192;2023-12-20T12:03:16;3.63;;;2.97;;
40533;SDS011;26233;51.894;10.192;2023-12-20T12:05:45;3.67;;;2.77;;
40533;SDS011;26233;51.894;10.192;2023-12-20T12:08:13;3.07;;;2.77;;
40533;SDS011;26233;51.894;10.192;2023-12-20T12:10:41;4.17;;;2.87;;
40533;SDS011;26233;51.894;10.192;2023-12-20T12:13:09;4.20;;;2.67;;
40533;SDS011;26233;51.894;10.192;2023-12-20T12:15:37;3.63;;;2.80;;
40533;SDS011;26233;51.894;10.192;2023-12-20T12:18:05;5.13;;;3.20;;
40533;SDS011;26233;51.894;10.192;2023-12-20T12:20:32;3.50;;;2.90;;
40533;SDS011;26233;51.894;10.192;2023-12-20T12:23:00;4.03;;;2.73;;
40533;SDS011;26233;51.894;10.192;2023-12-20T12:25:29;3.93;;;2.83;;
40533;SDS011;26233;51.894;10.192;2023-12-20T12:27:58;2.87;;;2.50;;
40533;SDS011;26233;51.894;10.192;2023-12-20T12:30:26;5.23;;;2.93;;
40533;SDS011;26233;51.894;10.192;2023-12-20T12:32:55;3.17;;;2.47;;
40533;SDS011;26233;51.894;10.192;2023-12-20T12:35:22;3.88;;;3.00;;
40533;SDS011;26233;51.894;10.192;2023-12-20T12:37:50;3.17;;;2.60;;
40533;SDS011;26233;51.894;10.192;2023-12-20T12:40:17;4.23;;;2.97;;
40533;SDS011;26233;51.894;10.192;2023-12-20T12:42:45;5.13;;;2.73;;
40533;SDS011;26233;51.894;10.192;2023-12-20T12:45:12;3.30;;;2.80;;
40533;SDS011;26233;51.894;10.192;2023-12-20T12:47:42;3.07;;;2.73;;
40533;SDS011;26233;51.894;10.192;2023-12-20T12:50:09;3.30;;;3.00;;
40533;SDS011;26233;51.894;10.192;2023-12-20T12:52:36;3.30;;;3.00;;
40533;SDS011;26233;51.894;10.192;2023-12-20T12:55:03;3.57;;;2.90;;
40533;SDS011;26233;51.894;10.192;2023-12-20T12:57:31;3.40;;;3.10;;
40533;SDS011;26233;51.894;10.192;2023-12-20T12:59:58;3.20;;;2.90;;
40533;SDS011;26233;51.894;10.192;2023-12-20T13:02:25;3.10;;;2.75;;
40533;SDS011;26233;51.894;10.192;2023-12-20T13:04:54;3.80;;;2.90;;
40533;SDS011;26233;51.894;10.192;2023-12-20T13:07:21;4.33;;;2.77;;
40533;SDS011;26233;51.894;10.192;2023-12-20T13:09:48;4.60;;;2.90;;
40533;SDS011;26233;51.894;10.192;2023-12-20T13:12:15;3.77;;;2.83;;
40533;SDS011;26233;51.894;10.192;2023-12-20T13:14:42;3.43;;;2.97;;
40533;SDS011;26233;51.894;10.192;2023-12-20T13:17:10;3.63;;;2.80;;
40533;SDS011;26233;51.894;10.192;2023-12-20T13:19:37;5.57;;;3.17;;
40533;SDS011;26233;51.894;10.192;2023-12-20T13:22:05;5.00;;;3.30;;
40533;SDS011;26233;51.894;10.192;2023-12-20T13:24:32;3.87;;;3.00;;
40533;SDS011;26233;51.894;10.192;2023-12-20T13:27:00;3.92;;;3.10;;
40533;SDS011;26233;51.894;10.192;2023-12-20T13:29:27;3.27;;;2.73;;
40533;SDS011;26233;51.894;10.192;2023-12-20T13:31:54;8.07;;;5.90;;
40533;SDS011;26233;51.894;10.192;2023-12-20T13:34:21;6.32;;;4.70;;
40533;SDS011;26233;51.894;10.192;2023-12-20T13:36:48;6.27;;;3.90;;
40533;SDS011;26233;51.894;10.192;2023-12-20T13:39:17;5.88;;;3.30;;
40533;SDS011;26233;51.894;10.192;2023-12-20T13:41:44;6.60;;;4.00;;
40533;SDS011;26233;51.894;10.192;2023-12-20T13:44:11;4.77;;;3.60;;
40533;SDS011;26233;51.894;10.192;2023-12-20T13:46:38;5.07;;;4.17;;
40533;SDS011;26233;51.894;10.192;2023-12-20T13:49:07;4.20;;;3.00;;
40533;SDS011;26233;51.894;10.192;2023-12-20T13:51:34;4.10;;;3.37;;
40533;SDS011;26233;51.894;10.192;2023-12-20T13:54:01;5.53;;;3.60;;
40533;SDS011;26233;51.894;10.192;2023-12-20T13:56:29;6.17;;;3.60;;
40533;SDS011;26233;51.894;10.192;2023-12-20T13:58:58;6.10;;;4.00;;
40533;SDS011;26233;51.894;10.192;2023-12-20T14:01:25;4.63;;;3.30;;
40533;SDS011;26233;51.894;10.192;2023-12-20T14:03:52;3.87;;;2.90;;
40533;SDS011;26233;51.894;10.192;2023-12-20T14:06:19;6.53;;;3.40;;
40533;SDS011;26233;51.894;10.192;2023-12-20T14:08:46;4.83;;;3.57;;
40533;SDS011;26233;51.894;10.192;2023-12-20T14:11:13;4.87;;;3.13;;
40533;SDS011;26233;51.894;10.192;2023-12-20T14:13:42;3.37;;;2.30;;
40533;SDS011;26233;51.894;10.192;2023-12-20T14:16:09;2.67;;;2.43;;
40533;SDS011;26233;51.894;10.192;2023-12-20T14:18:37;4.13;;;3.17;;
40533;SDS011;26233;51.894;10.192;2023-12-20T14:21:05;4.53;;;2.80;;
40533;SDS011;26233;51.894;10.192;2023-12-20T14:23:32;4.07;;;3.27;;
40533;SDS011;26233;51.894;10.192;2023-12-20T14:25:59;4.30;;;2.87;;
40533;SDS011;26233;51.894;10.192;2023-12-20T14:28:27;3.90;;;3.50;;
40533;SDS011;26233;51.894;10.192;2023-12-20T14:30:55;5.93;;;2.80;;
40533;SDS011;26233;51.894;10.192;2023-12-20T14:33:22;3.07;;;2.57;;
40533;SDS011;26233;51.894;10.192;2023-12-20T14:35:50;2.23;;;2.00;;
40533;SDS011;26233;51.894;10.192;2023-12-20T14:38:17;3.03;;;2.20;;